createdAt,value
2024-04-18T00:02:19.206Z,9.13
2024-04-18T00:04:46.847Z,9.12
2024-04-18T00:07:14.630Z,9.12
2024-04-18T00:09:42.328Z,9.14
2024-04-18T00:12:10.098Z,9.13
2024-04-18T00:14:37.780Z,9.13
2024-04-18T00:17:06.023Z,9.15
2024-04-18T00:19:36.218Z,9.15
2024-04-18T00:22:05.707Z,9.14
2024-04-18T00:24:33.292Z,9.13
2024-04-18T00:27:01.106Z,9.11
2024-04-18T00:29:28.673Z,9.10
2024-04-18T00:31:56.316Z,9.08
2024-04-18T00:34:23.908Z,9.06
2024-04-18T00:36:51.712Z,9.05
2024-04-18T00:39:19.528Z,9.02
2024-04-18T00:41:47.172Z,8.98
2024-04-18T00:44:15.574Z,8.95
2024-04-18T00:46:43.253Z,8.94
2024-04-18T00:49:11.083Z,8.92
2024-04-18T00:51:39.331Z,8.91
2024-04-18T00:54:09.292Z,8.89
2024-04-18T00:56:38.883Z,8.90
2024-04-18T00:59:06.848Z,8.93
2024-04-18T01:01:34.710Z,8.96
2024-04-18T01:04:02.507Z,8.93
2024-04-18T01:06:30.804Z,8.89
2024-04-18T01:09:01.546Z,8.88
2024-04-18T01:11:29.309Z,8.90
2024-04-18T01:13:56.900Z,8.89
2024-04-18T01:16:24.670Z,8.90
2024-04-18T01:18:52.318Z,8.90
2024-04-18T01:21:20.164Z,8.89
2024-04-18T01:23:47.706Z,8.88
2024-04-18T01:26:19.436Z,8.86
2024-04-18T01:28:47.031Z,8.84
2024-04-18T01:31:14.664Z,8.83
2024-04-18T01:33:42.359Z,8.83
2024-04-18T01:36:10.053Z,8.82
2024-04-18T01:38:37.774Z,8.84
2024-04-18T01:41:05.472Z,8.83
2024-04-18T01:43:33.325Z,8.78
2024-04-18T01:46:00.962Z,8.76
2024-04-18T01:48:28.900Z,8.74
2024-04-18T01:50:56.675Z,8.72
2024-04-18T01:53:24.281Z,8.73
2024-04-18T01:55:51.880Z,8.74
2024-04-18T01:58:19.519Z,8.72
2024-04-18T02:00:47.619Z,8.69
2024-04-18T02:03:15.421Z,8.68
2024-04-18T02:05:43.918Z,8.67
2024-04-18T02:08:11.505Z,8.64
2024-04-18T02:10:39.178Z,8.60
2024-04-18T02:13:06.916Z,8.59
2024-04-18T02:15:34.648Z,8.57
2024-04-18T02:18:02.266Z,8.55
2024-04-18T02:20:29.911Z,8.51
2024-04-18T02:22:57.460Z,8.51
2024-04-18T02:25:25.125Z,8.49
2024-04-18T02:27:52.778Z,8.47
2024-04-18T02:30:22.347Z,8.46
2024-04-18T02:32:51.529Z,8.46
2024-04-18T02:35:19.119Z,8.45
2024-04-18T02:37:46.666Z,8.41
2024-04-18T02:40:14.312Z,8.38
2024-04-18T02:42:42.025Z,8.37
2024-04-18T02:45:09.848Z,8.33
2024-04-18T02:47:37.601Z,8.32
2024-04-18T02:50:07.477Z,8.29
2024-04-18T02:52:35.086Z,8.27
2024-04-18T02:55:02.661Z,8.27
2024-04-18T02:57:30.321Z,8.26
2024-04-18T03:00:00.881Z,8.25
2024-04-18T03:02:28.885Z,8.26
2024-04-18T03:04:56.663Z,8.22
2024-04-18T03:07:24.344Z,8.18
2024-04-18T03:09:53.757Z,8.15
2024-04-18T03:12:21.388Z,8.15
2024-04-18T03:14:50.035Z,8.13
2024-04-18T03:17:17.604Z,8.12
2024-04-18T03:19:45.509Z,8.11
2024-04-18T03:22:13.220Z,8.11
2024-04-18T03:24:44.968Z,8.09
2024-04-18T03:27:12.897Z,8.09
2024-04-18T03:29:40.996Z,8.10
2024-04-18T03:32:08.617Z,8.10
2024-04-18T03:34:36.512Z,8.12
2024-04-18T03:37:04.342Z,8.11
2024-04-18T03:39:32.579Z,8.13
2024-04-18T03:42:00.300Z,8.12
2024-04-18T03:44:28.079Z,8.12
2024-04-18T03:46:55.732Z,8.13
2024-04-18T03:49:23.550Z,8.14
2024-04-18T03:51:51.346Z,8.13
2024-04-18T03:54:21.347Z,8.13
2024-04-18T03:56:49.326Z,8.10
2024-04-18T03:59:17.058Z,8.06
2024-04-18T04:01:44.819Z,8.01
2024-04-18T04:04:12.638Z,7.99
2024-04-18T04:06:40.718Z,7.99
2024-04-18T04:09:08.438Z,7.98
2024-04-18T04:11:37.074Z,7.95
2024-04-18T04:14:06.463Z,7.92
2024-04-18T04:16:34.122Z,7.89
2024-04-18T04:19:01.941Z,7.86
2024-04-18T04:21:29.797Z,7.86
2024-04-18T04:23:58.084Z,7.83
2024-04-18T04:26:25.834Z,7.81
2024-04-18T04:28:53.558Z,7.78
2024-04-18T04:31:21.270Z,7.77
2024-04-18T04:33:49.007Z,7.76
2024-04-18T04:36:17.856Z,7.74
2024-04-18T04:38:45.599Z,7.72
2024-04-18T04:41:14.615Z,7.70
2024-04-18T04:43:42.883Z,7.72
2024-04-18T04:46:10.525Z,7.74
2024-04-18T04:48:40.926Z,7.76
2024-04-18T04:51:08.945Z,7.77
2024-04-18T04:53:36.885Z,7.77
2024-04-18T04:56:04.875Z,7.76
2024-04-18T04:58:32.474Z,7.76
2024-04-18T05:01:00.338Z,7.78
2024-04-18T05:03:28.315Z,7.80
2024-04-18T05:05:56.287Z,7.84
2024-04-18T05:08:24.110Z,7.86
2024-04-18T05:10:51.669Z,7.86
2024-04-18T05:13:19.632Z,7.85
2024-04-18T05:15:47.278Z,7.83
2024-04-18T05:18:16.760Z,7.84
2024-04-18T05:20:45.282Z,7.83
2024-04-18T05:23:12.718Z,7.83
2024-04-18T05:25:40.474Z,7.80
2024-04-18T05:28:12.460Z,7.79
2024-04-18T05:30:59.290Z,7.76
2024-04-18T05:33:27.094Z,7.76
2024-04-18T05:35:54.897Z,7.77
2024-04-18T05:38:22.675Z,7.76
2024-04-18T05:40:50.659Z,7.81
2024-04-18T05:43:18.894Z,7.86
2024-04-18T05:45:47.504Z,7.88
2024-04-18T05:48:15.358Z,7.92
2024-04-18T05:50:43.657Z,7.97
2024-04-18T05:53:11.239Z,8.00
2024-04-18T05:55:41.169Z,8.03
2024-04-18T05:58:10.244Z,8.07
2024-04-18T06:00:37.918Z,8.12
2024-04-18T06:03:06.024Z,8.19
2024-04-18T06:05:34.404Z,8.27
2024-04-18T06:08:02.823Z,8.36
2024-04-18T06:10:30.800Z,8.42
2024-04-18T06:12:58.599Z,8.44
2024-04-18T06:15:26.159Z,8.45
2024-04-18T06:17:53.866Z,8.49
2024-04-18T06:20:25.004Z,8.51
2024-04-18T06:22:52.611Z,8.54
2024-04-18T06:25:20.202Z,8.56
2024-04-18T06:27:48.471Z,8.57
2024-04-18T06:30:16.474Z,8.56
2024-04-18T06:32:45.703Z,8.55
2024-04-18T06:35:13.505Z,8.57
2024-04-18T06:37:41.589Z,8.62
2024-04-18T06:40:11.357Z,8.60
2024-04-18T06:42:39.040Z,8.57
2024-04-18T06:45:06.823Z,8.56
2024-04-18T06:47:34.558Z,8.57
2024-04-18T06:50:02.351Z,8.58
2024-04-18T06:52:30.023Z,8.58
2024-04-18T06:54:57.659Z,8.55
2024-04-18T06:57:25.353Z,8.54
2024-04-18T06:59:53.547Z,8.55
2024-04-18T07:02:21.317Z,8.52
2024-04-18T07:04:48.889Z,8.50
2024-04-18T07:07:16.708Z,8.47
2024-04-18T07:09:47.358Z,8.43
2024-04-18T07:12:18.325Z,8.35
2024-04-18T07:14:45.992Z,8.32
2024-04-18T07:17:13.973Z,8.27
2024-04-18T07:19:42.113Z,8.27
2024-04-18T07:22:09.936Z,8.29
2024-04-18T07:24:39.352Z,8.36
2024-04-18T07:27:06.983Z,8.41
2024-04-18T07:29:34.706Z,8.37
2024-04-18T07:32:02.322Z,8.35
2024-04-18T07:34:29.940Z,8.30
2024-04-18T07:36:57.742Z,8.28
2024-04-18T07:39:26.446Z,8.30
2024-04-18T07:41:54.040Z,8.35
2024-04-18T07:44:24.092Z,8.38
2024-04-18T07:46:52.497Z,8.39
2024-04-18T07:49:20.357Z,8.38
2024-04-18T07:51:48.480Z,8.32
2024-04-18T07:54:19.338Z,8.31
2024-04-18T07:56:48.475Z,8.35
2024-04-18T07:59:18.436Z,8.34
2024-04-18T08:01:48.714Z,8.38
2024-04-18T08:04:34.931Z,8.39
2024-04-18T08:07:07.937Z,8.43
2024-04-18T08:09:40.198Z,8.43
2024-04-18T08:12:24.133Z,8.44
2024-04-18T08:14:58.744Z,8.36
2024-04-18T08:17:29.628Z,8.35
2024-04-18T08:19:57.452Z,8.36
2024-04-18T08:22:25.907Z,8.38
2024-04-18T08:24:53.678Z,8.42
2024-04-18T08:27:21.344Z,8.47
2024-04-18T08:29:49.079Z,8.50
2024-04-18T08:32:16.787Z,8.53
2024-04-18T08:34:45.150Z,8.55
2024-04-18T08:37:14.467Z,8.54
2024-04-18T08:39:42.414Z,8.57
2024-04-18T08:42:14.742Z,8.60
2024-04-18T08:44:42.729Z,8.60
2024-04-18T08:47:15.787Z,8.64
2024-04-18T08:49:45.761Z,8.71
2024-04-18T08:52:15.977Z,8.78
2024-04-18T08:54:45.851Z,8.78
2024-04-18T08:57:22.272Z,8.81
2024-04-18T08:59:55.320Z,8.88
2024-04-18T09:02:23.345Z,8.92
2024-04-18T09:04:54.103Z,8.85
2024-04-18T09:07:25.738Z,8.82
2024-04-18T09:10:11.660Z,8.85
2024-04-18T09:12:39.937Z,8.80
2024-04-18T09:15:09.602Z,8.77
2024-04-18T09:17:37.781Z,8.63
2024-04-18T09:20:06.767Z,8.57
2024-04-18T09:22:34.724Z,8.56
2024-04-18T09:25:07.713Z,8.58
2024-04-18T09:27:36.572Z,8.64
2024-04-18T09:30:05.486Z,8.79
2024-04-18T09:32:34.187Z,8.88
2024-04-18T09:35:05.210Z,8.97
2024-04-18T09:37:34.046Z,9.07
2024-04-18T09:40:03.413Z,8.98
2024-04-18T09:43:16.098Z,8.97
2024-04-18T09:46:05.176Z,8.96
2024-04-18T09:48:34.232Z,8.95
2024-04-18T09:51:04.423Z,8.89
2024-04-18T09:53:32.768Z,8.84
2024-04-18T09:56:01.410Z,8.86
2024-04-18T09:58:29.697Z,8.83
2024-04-18T10:00:58.341Z,8.77
2024-04-18T10:03:26.269Z,8.75
2024-04-18T10:05:56.895Z,8.71
2024-04-18T10:08:31.534Z,8.70
2024-04-18T10:10:59.746Z,8.74
2024-04-18T10:13:27.806Z,8.74
2024-04-18T10:16:10.817Z,8.70
2024-04-18T10:18:41.138Z,8.65
2024-04-18T10:21:18.758Z,8.59
2024-04-18T10:23:54.624Z,8.55
2024-04-18T10:26:23.273Z,8.59
2024-04-18T10:28:51.318Z,8.66
2024-04-18T10:31:20.997Z,8.70
2024-04-18T10:33:52.468Z,8.76
2024-04-18T10:36:26.366Z,8.76
2024-04-18T10:38:54.227Z,8.74
2024-04-18T10:41:23.791Z,8.78
2024-04-18T10:43:55.890Z,8.78
2024-04-18T10:46:24.623Z,8.76
2024-04-18T10:48:56.002Z,8.74
2024-04-18T10:51:28.404Z,8.72
2024-04-18T10:53:56.013Z,8.75
2024-04-18T10:56:23.722Z,8.76
2024-04-18T10:58:52.519Z,8.75
2024-04-18T11:01:21.918Z,8.78
2024-04-18T11:04:02.891Z,8.79
2024-04-18T11:06:30.624Z,8.83
2024-04-18T11:09:01.582Z,8.86
2024-04-18T11:11:33.280Z,8.97
2024-04-18T11:14:01.608Z,9.06
2024-04-18T11:16:29.623Z,9.18
2024-04-18T11:18:59.751Z,9.26
2024-04-18T11:21:28.008Z,9.32
2024-04-18T11:23:56.332Z,9.37
2024-04-18T11:26:28.981Z,9.38
2024-04-18T11:28:58.356Z,9.41
2024-04-18T11:31:25.873Z,9.36
2024-04-18T11:33:56.869Z,9.27
2024-04-18T11:36:25.578Z,9.16
2024-04-18T11:38:58.467Z,9.09
2024-04-18T11:41:30.156Z,9.05
2024-04-18T11:43:58.026Z,9.04
2024-04-18T11:46:28.094Z,9.02
2024-04-18T11:48:56.182Z,9.03
2024-04-18T11:51:24.966Z,9.09
2024-04-18T11:53:57.041Z,9.11
2024-04-18T11:56:24.595Z,9.10
2024-04-18T11:58:54.728Z,9.18
2024-04-18T12:01:22.448Z,9.22
2024-04-18T12:03:50.125Z,9.27
2024-04-18T12:06:18.254Z,9.24
2024-04-18T12:08:50.092Z,9.27
2024-04-18T12:11:20.023Z,9.30
2024-04-18T12:13:49.064Z,9.34
2024-04-18T12:16:16.822Z,9.41
2024-04-18T12:18:44.640Z,9.45
2024-04-18T12:21:15.151Z,9.42
2024-04-18T12:23:43.817Z,9.39
2024-04-18T12:26:12.062Z,9.37
2024-04-18T12:28:40.077Z,9.44
2024-04-18T12:31:07.810Z,9.51
2024-04-18T12:33:35.682Z,9.60
2024-04-18T12:36:04.744Z,9.68
2024-04-18T12:38:32.426Z,9.69
2024-04-18T12:41:03.854Z,9.71
2024-04-18T12:43:34.125Z,9.74
2024-04-18T12:46:10.944Z,9.71
2024-04-18T12:48:47.907Z,9.69
2024-04-18T12:51:16.866Z,9.77
2024-04-18T12:53:44.823Z,9.78
2024-04-18T12:56:13.613Z,9.85
2024-04-18T12:58:41.306Z,9.90
2024-04-18T13:01:12.097Z,9.95
2024-04-18T13:03:43.866Z,10.03
2024-04-18T13:06:12.310Z,10.09
2024-04-18T13:08:39.874Z,10.15
2024-04-18T13:11:07.582Z,10.23
2024-04-18T13:13:35.361Z,10.27
2024-04-18T13:16:04.489Z,10.41
2024-04-18T13:18:32.329Z,10.58
2024-04-18T13:21:00.178Z,10.65
2024-04-18T13:23:27.739Z,10.73
2024-04-18T13:25:55.833Z,10.83
2024-04-18T13:28:23.539Z,10.84
2024-04-18T13:30:51.490Z,10.85
2024-04-18T13:33:19.855Z,10.85
2024-04-18T13:35:48.399Z,10.82
2024-04-18T13:38:15.962Z,10.78
2024-04-18T13:40:43.820Z,10.74
2024-04-18T13:43:11.581Z,10.67
2024-04-18T13:45:39.437Z,10.62
2024-04-18T13:48:07.997Z,10.68
2024-04-18T13:50:35.837Z,10.76
2024-04-18T13:53:03.513Z,10.84
2024-04-18T13:55:31.382Z,10.90
2024-04-18T13:57:59.987Z,10.95
2024-04-18T14:00:28.215Z,11.03
2024-04-18T14:02:56.026Z,11.09
2024-04-18T14:05:24.847Z,11.14
2024-04-18T14:07:52.878Z,11.13
2024-04-18T14:10:20.458Z,11.14
2024-04-18T14:12:48.661Z,11.21
2024-04-18T14:15:29.287Z,11.31
2024-04-18T14:18:15.813Z,11.33
2024-04-18T14:20:51.121Z,11.36
2024-04-18T14:23:19.124Z,11.46
2024-04-18T14:25:47.550Z,11.56
2024-04-18T14:28:23.683Z,11.72
2024-04-18T14:30:56.650Z,11.94
2024-04-18T14:33:24.690Z,11.98
2024-04-18T14:35:53.793Z,12.07
2024-04-18T14:38:24.954Z,12.13
2024-04-18T14:41:01.610Z,12.09
2024-04-18T14:43:37.400Z,12.21
2024-04-18T14:46:05.452Z,13.23
2024-04-18T14:48:37.375Z,14.59
2024-04-18T14:51:05.995Z,15.98
2024-04-18T14:53:33.998Z,17.19
2024-04-18T14:56:04.889Z,18.21
2024-04-18T14:58:32.921Z,18.96
2024-04-18T15:01:00.485Z,18.85
2024-04-18T15:03:28.379Z,18.88
2024-04-18T15:05:57.796Z,18.88
2024-04-18T15:08:28.294Z,19.01
2024-04-18T15:10:56.809Z,19.18
2024-04-18T15:13:24.721Z,18.69
2024-04-18T15:15:52.275Z,17.86
2024-04-18T15:18:19.912Z,16.61
2024-04-18T15:20:47.682Z,15.66
2024-04-18T15:23:15.372Z,15.24
2024-04-18T15:25:43.276Z,14.61
2024-04-18T15:28:10.936Z,14.21
2024-04-18T15:30:38.657Z,13.87
2024-04-18T15:33:06.388Z,13.57
2024-04-18T15:35:34.776Z,13.39
2024-04-18T15:38:04.396Z,13.13
2024-04-18T15:40:36.316Z,12.87
2024-04-18T15:43:06.004Z,12.67
2024-04-18T15:45:38.855Z,12.59
2024-04-18T15:48:08.402Z,12.57
2024-04-18T15:50:36.189Z,12.53
2024-04-18T15:53:04.261Z,12.51
2024-04-18T15:55:34.186Z,12.46
2024-04-18T15:58:03.979Z,12.43
2024-04-18T16:00:31.890Z,12.42
2024-04-18T16:03:03.208Z,12.40
2024-04-18T16:05:31.073Z,12.41
2024-04-18T16:08:00.656Z,12.42
2024-04-18T16:10:30.185Z,12.44
2024-04-18T16:13:00.449Z,12.48
2024-04-18T16:15:29.880Z,12.50
2024-04-18T16:17:57.599Z,12.51
2024-04-18T16:20:26.251Z,12.49
2024-04-18T16:22:54.304Z,12.49
2024-04-18T16:25:24.727Z,12.47
2024-04-18T16:27:52.500Z,12.46
2024-04-18T16:30:20.956Z,12.47
2024-04-18T16:32:48.794Z,12.45
2024-04-18T16:35:17.002Z,12.37
2024-04-18T16:37:47.385Z,12.28
2024-04-18T16:40:16.799Z,12.25
2024-04-18T16:42:45.636Z,12.21
2024-04-18T16:45:13.262Z,12.19
2024-04-18T16:47:40.952Z,12.17
2024-04-18T16:50:09.317Z,12.15
2024-04-18T16:52:36.961Z,12.13
2024-04-18T16:55:06.152Z,12.04
2024-04-18T16:57:37.411Z,11.92
2024-04-18T17:00:06.919Z,11.78
2024-04-18T17:02:36.819Z,11.72
2024-04-18T17:05:12.721Z,11.61
2024-04-18T17:07:40.447Z,11.52
2024-04-18T17:10:08.292Z,11.47
2024-04-18T17:12:36.772Z,11.42
2024-04-18T17:15:08.172Z,11.34
2024-04-18T17:17:35.929Z,11.31
2024-04-18T17:20:05.493Z,11.33
2024-04-18T17:22:33.330Z,11.34
2024-04-18T17:25:01.064Z,11.35
2024-04-18T17:27:29.217Z,11.36
2024-04-18T17:29:57.067Z,11.35
2024-04-18T17:32:24.910Z,11.33
2024-04-18T17:34:52.868Z,11.30
2024-04-18T17:37:20.493Z,11.26
2024-04-18T17:39:51.488Z,11.24
2024-04-18T17:42:20.487Z,11.21
2024-04-18T17:44:48.082Z,11.18
2024-04-18T17:47:15.948Z,11.17
2024-04-18T17:49:43.556Z,11.17
2024-04-18T17:52:11.570Z,11.15
2024-04-18T17:54:39.461Z,11.12
2024-04-18T17:57:07.498Z,11.12
2024-04-18T17:59:35.282Z,11.14
2024-04-18T18:02:03.107Z,11.14
2024-04-18T18:04:31.376Z,11.11
2024-04-18T18:06:59.613Z,11.09
2024-04-18T18:09:28.474Z,11.07
2024-04-18T18:11:56.089Z,11.07
2024-04-18T18:14:24.693Z,11.07
2024-04-18T18:16:52.414Z,11.07
2024-04-18T18:19:23.316Z,11.07
2024-04-18T18:21:51.902Z,11.06
2024-04-18T18:24:19.632Z,11.05
2024-04-18T18:26:47.260Z,11.04
2024-04-18T18:29:15.673Z,11.04
2024-04-18T18:31:43.229Z,11.04
2024-04-18T18:34:14.276Z,11.03
2024-04-18T18:36:44.117Z,11.03
2024-04-18T18:39:13.073Z,11.05
2024-04-18T18:41:40.796Z,11.06
2024-04-18T18:44:08.571Z,11.06
2024-04-18T18:46:36.348Z,11.07
2024-04-18T18:49:03.990Z,11.08
2024-04-18T18:51:31.796Z,11.09
2024-04-18T18:54:00.794Z,11.10
2024-04-18T18:56:31.440Z,11.11
2024-04-18T18:58:59.440Z,11.09
2024-04-18T19:01:27.085Z,11.05
2024-04-18T19:03:54.854Z,10.98
2024-04-18T19:06:24.199Z,10.97
2024-04-18T19:08:52.165Z,10.99
2024-04-18T19:11:20.027Z,11.00
2024-04-18T19:13:48.060Z,11.01
2024-04-18T19:16:17.664Z,11.01
2024-04-18T19:18:47.200Z,10.99
2024-04-18T19:21:15.326Z,11.00
2024-04-18T19:23:46.375Z,11.01
2024-04-18T19:26:14.261Z,11.03
2024-04-18T19:28:42.629Z,11.03
2024-04-18T19:31:11.057Z,11.03
2024-04-18T19:33:38.823Z,11.02
2024-04-18T19:36:06.641Z,11.00
2024-04-18T19:38:34.578Z,11.00
2024-04-18T19:41:02.364Z,10.98
2024-04-18T19:43:30.134Z,10.97
2024-04-18T19:46:01.651Z,10.99
2024-04-18T19:48:30.176Z,11.02
2024-04-18T19:50:57.953Z,11.03
2024-04-18T19:53:25.595Z,11.07
2024-04-18T19:55:55.781Z,11.09
2024-04-18T19:58:23.968Z,11.11
2024-04-18T20:00:51.629Z,11.12
2024-04-18T20:03:19.689Z,11.12
2024-04-18T20:05:47.604Z,11.13
2024-04-18T20:08:15.223Z,11.13
2024-04-18T20:10:43.365Z,11.11
2024-04-18T20:13:10.952Z,11.11
2024-04-18T20:15:38.701Z,11.10
2024-04-18T20:18:08.002Z,11.09
2024-04-18T20:20:36.230Z,11.08
2024-04-18T20:23:04.327Z,11.07
2024-04-18T20:25:32.373Z,11.07
2024-04-18T20:28:00.185Z,11.07
2024-04-18T20:30:29.134Z,11.03
2024-04-18T20:32:57.986Z,11.01
2024-04-18T20:35:25.736Z,11.01
2024-04-18T20:37:56.255Z,11.04
2024-04-18T20:40:23.963Z,11.07
2024-04-18T20:42:51.525Z,11.07
2024-04-18T20:45:19.469Z,11.07
2024-04-18T20:47:47.505Z,11.04
2024-04-18T20:50:15.962Z,11.01
2024-04-18T20:52:43.590Z,10.98
2024-04-18T20:55:11.194Z,10.95
2024-04-18T20:57:38.774Z,10.91
2024-04-18T21:00:07.723Z,10.85
2024-04-18T21:02:35.554Z,10.80
2024-04-18T21:05:06.382Z,10.76
2024-04-18T21:07:34.001Z,10.74
2024-04-18T21:10:01.868Z,10.71
2024-04-18T21:12:29.549Z,10.69
2024-04-18T21:14:57.139Z,10.67
2024-04-18T21:17:24.780Z,10.64
2024-04-18T21:19:52.717Z,10.62
2024-04-18T21:22:20.581Z,10.59
2024-04-18T21:24:48.385Z,10.56
2024-04-18T21:27:16.463Z,10.53
2024-04-18T21:29:44.103Z,10.50
2024-04-18T21:32:11.939Z,10.47
2024-04-18T21:34:39.899Z,10.45
2024-04-18T21:37:07.503Z,10.43
2024-04-18T21:39:35.186Z,10.41
2024-04-18T21:42:03.006Z,10.39
2024-04-18T21:44:31.107Z,10.37
2024-04-18T21:46:58.686Z,10.35
2024-04-18T21:49:26.304Z,10.31
2024-04-18T21:51:54.148Z,10.28
2024-04-18T21:54:21.750Z,10.26
2024-04-18T21:56:49.359Z,10.24
2024-04-18T21:59:17.086Z,10.20
2024-04-18T22:01:44.692Z,10.16
2024-04-18T22:04:14.835Z,10.15
2024-04-18T22:06:42.864Z,10.12
2024-04-18T22:09:10.589Z,10.09
2024-04-18T22:11:38.582Z,10.05
2024-04-18T22:14:08.558Z,10.05
2024-04-18T22:16:36.131Z,10.05
2024-04-18T22:19:03.978Z,10.07
2024-04-18T22:21:32.703Z,10.08
2024-04-18T22:24:01.026Z,10.09
2024-04-18T22:26:28.708Z,10.10
2024-04-18T22:28:56.276Z,10.10
2024-04-18T22:31:24.394Z,10.09
2024-04-18T22:33:52.116Z,10.10
2024-04-18T22:36:20.327Z,10.11
2024-04-18T22:38:47.939Z,10.11
2024-04-18T22:41:15.572Z,10.12
2024-04-18T22:43:43.424Z,10.13
2024-04-18T22:46:11.138Z,10.12
2024-04-18T22:48:40.891Z,10.13
2024-04-18T22:51:09.061Z,10.12
2024-04-18T22:53:38.355Z,10.10
2024-04-18T22:56:06.914Z,10.08
2024-04-18T22:58:34.504Z,10.06
2024-04-18T23:01:04.121Z,10.04
2024-04-18T23:03:32.112Z,10.02
2024-04-18T23:05:59.759Z,10.00
2024-04-18T23:08:27.436Z,9.97
2024-04-18T23:10:55.066Z,9.96
2024-04-18T23:13:22.800Z,9.95
2024-04-18T23:15:50.496Z,9.94
2024-04-18T23:18:18.376Z,9.94
2024-04-18T23:20:46.291Z,9.93
2024-04-18T23:23:14.863Z,9.93
2024-04-18T23:25:44.998Z,9.93
2024-04-18T23:28:12.842Z,9.93
2024-04-18T23:30:41.258Z,9.93
2024-04-18T23:33:11.238Z,9.94
2024-04-18T23:35:45.656Z,9.93
2024-04-18T23:38:13.328Z,9.93
2024-04-18T23:40:41.842Z,9.93
2024-04-18T23:43:09.696Z,9.94
2024-04-18T23:45:37.604Z,9.93
2024-04-18T23:48:07.695Z,9.93
2024-04-18T23:50:35.577Z,9.92
2024-04-18T23:53:03.206Z,9.89
2024-04-18T23:55:31.369Z,9.86
2024-04-18T23:58:00.067Z,9.85
